Bookmark and Share
Track history (hours):
 

Malibu

Last reported at 2013-Nov-29 09:31 UTC. Time now 2014-Apr-20 08:47 UTC.
Position N 35°55' E 025°49'.
Warning: this ship's position is months out of date.

Length 50 m; draft 3.4 m.

Type: Pleasure craft. MMSI: 319663000.

NotesDate/timePositionNaut miles runAvg speedWind from/ knotsBaromVisibWave heightAir tempDewpointWater temp
2013-Nov-29 09:31N 35°55' E 025°49'1313.2
2013-Nov-29 08:34N 36°03' E 025°37'1313.0
2013-Nov-29 07:32N 36°11' E 025°24'1313.0
2013-Nov-29 06:33N 36°19' E 025°12'1312.8
2013-Nov-29 05:33N 36°27' E 024°60'1212.3
2013-Nov-29 04:34N 36°35' E 024°48'1212.1
2013-Nov-29 03:33N 36°47' E 024°44'1211.7
2013-Nov-29 02:33N 36°56' E 024°34'1312.1
2013-Nov-29 01:31N 37°04' E 024°23'3411.6
2013-Nov-28 22:33N 37°28' E 023°51'1313.1
2013-Nov-28 21:33N 37°39' E 023°43'1312.7
2013-Nov-28 20:34N 37°51' E 023°37'3 2.7
2013-Nov-28 19:34N 37°54' E 023°39'2 2.4
2013-Nov-28 18:33N 37°56' E 023°39'0 0.0
2013-Nov-28 17:30N 37°56' E 023°39'0 0.0
2013-Nov-28 16:33N 37°56' E 023°39'0 0.0
2013-Nov-28 15:33N 37°56' E 023°39'0 0.0
2013-Nov-28 14:33N 37°56' E 023°39'0 0.0
2013-Nov-28 13:33N 37°56' E 023°39'0 0.0
2013-Nov-28 12:33N 37°56' E 023°39'0 0.0
2013-Nov-28 11:33N 37°56' E 023°39'0 0.0
2013-Nov-28 10:33N 37°56' E 023°39'0 0.0
2013-Nov-28 09:29N 37°56' E 023°39'0 0.0
2013-Nov-28 08:32N 37°56' E 023°39'0 0.0
2013-Nov-28 07:29N 37°56' E 023°39'0 0.0
2013-Nov-28 06:32N 37°56' E 023°39'0 0.0
2013-Nov-28 05:32N 37°56' E 023°39'0 0.0
2013-Nov-28 04:29N 37°56' E 023°39'0 0.0
2013-Nov-28 03:32N 37°56' E 023°39'0 0.0
2013-Nov-28 02:32N 37°56' E 023°39'0 0.0
2013-Nov-28 01:32N 37°56' E 023°39'0 0.0
2013-Nov-28 00:29N 37°56' E 023°39'0 0.0
2013-Nov-27 23:32N 37°56' E 023°39'0 0.0
2013-Nov-27 22:32N 37°56' E 023°39'0 0.0
2013-Nov-27 21:32N 37°56' E 023°39'0 0.0
2013-Nov-27 20:32N 37°56' E 023°39'0 0.0
2013-Nov-27 19:32N 37°56' E 023°39'0 0.0
2013-Nov-27 18:32N 37°56' E 023°39'0 0.0
2013-Nov-27 17:26N 37°56' E 023°39'0 0.0
2013-Nov-27 16:32N 37°56' E 023°39'0 0.0
2013-Nov-27 15:26N 37°56' E 023°39'0 0.0
2013-Nov-27 14:29N 37°56' E 023°39'0 0.0
2013-Nov-27 13:29N 37°56' E 023°39'0 0.0
2013-Nov-27 12:33N 37°56' E 023°39'0 0.0
2013-Nov-27 11:33N 37°56' E 023°39'0 0.0
2013-Nov-27 10:33N 37°56' E 023°39'0 0.0
2013-Nov-27 09:30N 37°56' E 023°39'0 0.0
2013-Nov-27 08:33N 37°56' E 023°39'0 0.0
2013-Nov-27 07:33N 37°56' E 023°39'0 0.0
2013-Nov-27 06:33N 37°56' E 023°39'0 0.0
2013-Nov-27 05:33N 37°56' E 023°39'0 0.0
2013-Nov-27 04:30N 37°56' E 023°39'0 0.0
2013-Nov-27 03:21N 37°56' E 023°39'0 0.0
2013-Nov-27 02:33N 37°56' E 023°39'0 0.0
2013-Nov-27 01:33N 37°56' E 023°39'0 0.0
2013-Nov-27 00:30N 37°56' E 023°39'0 0.0
2013-Nov-26 23:33N 37°56' E 023°39'0 0.0
2013-Nov-26 22:33N 37°56' E 023°39'0 0.0
2013-Nov-26 21:33N 37°56' E 023°39'6 6.5
2013-Nov-26 20:33N 37°51' E 023°34'1211.8
2013-Nov-26 19:33N 37°51' E 023°19'1312.3
2013-Nov-26 18:32N 37°54' E 023°04'7 7.1
2013-Nov-26 17:32N 37°58' E 022°56'1312.1
2013-Nov-26 16:30N 38°05' E 022°43'  
2013-Nov-22 14:13N 42°53' E 007°60'711.2
2013-Nov-22 13:33N 43°01' E 007°58'1111.0
2013-Nov-22 12:33N 43°11' E 007°55'1110.8
2013-Nov-22 11:33N 43°22' E 007°52'1010.0
2013-Nov-22 10:33N 43°32' E 007°48'1010.1
2013-Nov-22 09:33N 43°35' E 007°35'1010.1
2013-Nov-22 08:33N 43°39' E 007°22'5 3.6
2013-Nov-22 07:19N 43°42' E 007°17'0 0.0
2013-Nov-22 06:25N 43°42' E 007°17'0 0.0
2013-Nov-22 05:31N 43°42' E 007°17'0 0.0
2013-Nov-22 04:28N 43°42' E 007°17'0 0.0
2013-Nov-22 03:28N 43°42' E 007°17'0 0.0
2013-Nov-22 02:07N 43°42' E 007°17'0 0.0
2013-Nov-22 01:22N 43°42' E 007°17'0 0.0
2013-Nov-22 00:28N 43°42' E 007°17'0 0.0
2013-Nov-21 23:31N 43°42' E 007°17'0 0.0
2013-Nov-21 22:22N 43°42' E 007°17'0 0.0
2013-Nov-21 21:31N 43°42' E 007°17'0 0.0
2013-Nov-21 20:25N 43°42' E 007°17'0 0.0
2013-Nov-21 19:32N 43°42' E 007°17'1 0.7
2013-Nov-21 18:33N 43°41' E 007°18'1 0.6
2013-Nov-21 17:31N 43°42' E 007°17'0 0.0
2013-Nov-21 16:18N 43°42' E 007°17'0 0.0
2013-Nov-21 15:24N 43°42' E 007°17'0 0.0
2013-Nov-21 14:30N 43°42' E 007°17'0 0.0
2013-Nov-21 13:33N 43°42' E 007°17'0 0.0
2013-Nov-21 12:24N 43°42' E 007°17'0 0.0
2013-Nov-21 11:06N 43°42' E 007°17'0 0.0
2013-Nov-21 10:27N 43°42' E 007°17'0 0.0
2013-Nov-21 09:33N 43°42' E 007°17'0 0.0
2013-Nov-21 08:30N 43°42' E 007°17'0 0.0
2013-Nov-21 07:33N 43°42' E 007°17'0 0.0
2013-Nov-21 06:27N 43°42' E 007°17'0 0.0
2013-Nov-21 05:30N 43°42' E 007°17'0 0.0
2013-Nov-21 04:30N 43°42' E 007°17'0 0.0
2013-Nov-21 03:33N 43°42' E 007°17'0 0.0
2013-Nov-21 02:30N 43°42' E 007°17'0 0.0
2013-Nov-21 01:33N 43°42' E 007°17'0 0.0
2013-Nov-21 00:33N 43°42' E 007°17'0 0.0
2013-Nov-20 23:30N 43°42' E 007°17'0 0.0
2013-Nov-20 22:30N 43°42' E 007°17'0 0.0
2013-Nov-20 21:24N 43°42' E 007°17'0 0.0
2013-Nov-20 20:30N 43°42' E 007°17'0 0.0
2013-Nov-20 19:33N 43°42' E 007°17'0 0.0
2013-Nov-20 18:33N 43°42' E 007°17'0 0.0
2013-Nov-20 17:30N 43°42' E 007°17'0 0.0
2013-Nov-20 16:33N 43°42' E 007°17'0 0.0
2013-Nov-20 15:33N 43°42' E 007°17'0 0.0
2013-Nov-20 14:24N 43°42' E 007°17'0 0.0
2013-Nov-20 13:24N 43°42' E 007°17'0 0.0
2013-Nov-20 12:30N 43°42' E 007°17'0 0.0
2013-Nov-20 11:30N 43°42' E 007°17'0 0.0
2013-Nov-20 10:33N 43°42' E 007°17'0 0.0
2013-Nov-20 09:33N 43°42' E 007°17'0 0.0
2013-Nov-20 08:30N 43°42' E 007°17'0 0.0
2013-Nov-20 07:33N 43°42' E 007°17'0 0.0
2013-Nov-20 06:33N 43°42' E 007°17'0 0.0
2013-Nov-20 05:18N 43°42' E 007°17'0 0.0
2013-Nov-20 04:30N 43°42' E 007°17'0 0.0
2013-Nov-20 03:33N 43°42' E 007°17'0 0.0
2013-Nov-20 02:33N 43°42' E 007°17'0 0.0
2013-Nov-20 01:33N 43°42' E 007°17'0 0.0
2013-Nov-20 00:33N 43°42' E 007°17'0 0.0
2013-Nov-19 23:12N 43°42' E 007°17'0 0.0
2013-Nov-19 22:30N 43°42' E 007°17'0 0.0
2013-Nov-19 21:33N 43°42' E 007°17'0 0.0
2013-Nov-19 20:30N 43°42' E 007°17'0 0.0
2013-Nov-19 19:33N 43°42' E 007°17'0 0.0
2013-Nov-19 18:30N 43°42' E 007°17'0 0.0
2013-Nov-19 17:24N 43°42' E 007°17'0 0.0
2013-Nov-19 16:30N 43°42' E 007°17'0 0.0
2013-Nov-19 15:30N 43°42' E 007°17'0 0.0
2013-Nov-19 14:18N 43°42' E 007°17'0 0.0
2013-Nov-19 13:30N 43°42' E 007°17'0 0.0
2013-Nov-19 12:30N 43°42' E 007°17'0 0.0
2013-Nov-19 11:30N 43°42' E 007°17'0 0.0
2013-Nov-19 10:33N 43°42' E 007°17'0 0.0
2013-Nov-19 09:33N 43°42' E 007°17'  

Dump ship's entire track history

sailing weather and tide predictions

Malibu — ZCGB — position and weather